createdAt,value
2019-03-10T00:00:23.451Z,1017.36
2019-03-10T00:03:53.651Z,1016.99
2019-03-10T00:07:24.695Z,1016.53
2019-03-10T00:10:54.747Z,1016.25
2019-03-10T00:14:24.803Z,1015.86
2019-03-10T00:17:54.952Z,1015.52
2019-03-10T00:21:25.004Z,1015.35
2019-03-10T00:24:55.207Z,1014.89
2019-03-10T00:28:25.268Z,1014.76
2019-03-10T00:31:55.500Z,1014.6
2019-03-10T00:35:25.682Z,1013.47
2019-03-10T00:39:12.874Z,1012.57
2019-03-10T00:50:31.930Z,1012.28
2019-03-10T00:54:01.933Z,1012.83
2019-03-10T00:57:32.255Z,1013.34
2019-03-10T01:01:02.400Z,1013.66
2019-03-10T01:04:32.508Z,1013.83
2019-03-10T01:08:03.561Z,1013.49
2019-03-10T01:11:33.849Z,1013.11
2019-03-10T01:15:04.785Z,1013
2019-03-10T01:18:35.738Z,1013.11
2019-03-10T01:22:05.759Z,1013.36
2019-03-10T01:25:35.799Z,1013.22
2019-03-10T01:29:05.713Z,1013.21
2019-03-10T01:35:00.364Z,1013.42
2019-03-10T01:38:30.429Z,1013.22
2019-03-10T01:42:00.580Z,1012.01
2019-03-10T01:45:30.632Z,1011.8
2019-03-10T01:49:00.696Z,1012.08
2019-03-10T01:52:30.778Z,1012.62
2019-03-10T01:56:00.909Z,1012.67
2019-03-10T01:59:30.881Z,1012.81
2019-03-10T02:00:17.081Z,1012.72
2019-03-10T02:03:47.073Z,1012.19
2019-03-10T02:07:17.056Z,1011.59
2019-03-10T02:10:48.137Z,1010.78
2019-03-10T02:14:18.309Z,1010.57
2019-03-10T02:17:48.381Z,1010.11
2019-03-10T02:21:18.442Z,1010.03
2019-03-10T02:24:48.490Z,1010.09
2019-03-10T02:28:18.417Z,1010.57
2019-03-10T02:31:48.569Z,1011.12
2019-03-10T02:35:18.670Z,1011.68
2019-03-10T02:38:48.723Z,1012.1
2019-03-10T02:42:18.785Z,1012.33
2019-03-10T02:45:48.912Z,1012.39
2019-03-10T02:49:19.030Z,1012.63
2019-03-10T02:52:49.181Z,1012.76
2019-03-10T02:56:19.321Z,1012.86
2019-03-10T02:59:49.456Z,1013.03
2019-03-10T03:03:19.577Z,1013.08
2019-03-10T03:06:49.669Z,1013.14
2019-03-10T03:10:19.701Z,1013.12
2019-03-10T03:13:50.784Z,1012.88
2019-03-10T03:17:20.926Z,1012.21
2019-03-10T03:20:51.087Z,1011.7
2019-03-10T03:24:21.152Z,1011.81
2019-03-10T03:27:51.181Z,1012
2019-03-10T03:31:21.178Z,1011.71
2019-03-10T03:34:51.319Z,1011.75
2019-03-10T03:38:24.468Z,1011.56
2019-03-10T03:41:54.493Z,1011.02
2019-03-10T03:45:24.553Z,1011.16
2019-03-10T03:48:54.674Z,1010.88
2019-03-10T03:52:24.715Z,1010.25
2019-03-10T03:55:55.097Z,1010.12
2019-03-10T03:59:25.199Z,1009.83
2019-03-10T04:00:17.130Z,1009.71
2019-03-10T04:03:47.416Z,1009.31
2019-03-10T04:07:17.533Z,1009.15
2019-03-10T04:10:47.599Z,1008.82
2019-03-10T04:14:17.758Z,1009.14
2019-03-10T04:17:47.849Z,1009.32
2019-03-10T04:21:17.855Z,1009.61
2019-03-10T04:24:47.974Z,1009.43
2019-03-10T04:28:18.026Z,1009.47
2019-03-10T04:31:48.007Z,1009.46
2019-03-10T04:35:18.029Z,1009.87
2019-03-10T04:38:48.131Z,1010.05
2019-03-10T04:42:18.133Z,1010.41
2019-03-10T04:45:48.267Z,1010.59
2019-03-10T04:49:18.236Z,1010.5
2019-03-10T04:52:48.319Z,1010.75
2019-03-10T04:56:24.672Z,1010.87
2019-03-10T04:59:54.643Z,1010.62
2019-03-10T05:03:24.666Z,1009.79
2019-03-10T05:06:54.739Z,1009.23
2019-03-10T05:10:25.249Z,1009.17
2019-03-10T05:13:55.596Z,1008.25
2019-03-10T05:17:26.554Z,1007.76
2019-03-10T05:20:56.605Z,1007.49
2019-03-10T05:24:26.708Z,1006.46
2019-03-10T05:27:56.877Z,1006.59
2019-03-10T05:31:26.931Z,1006.94
2019-03-10T05:34:57.063Z,1007.48
2019-03-10T05:38:27.025Z,1007.85
2019-03-10T05:41:57.167Z,1008.12
2019-03-10T05:45:27.220Z,1008.56
2019-03-10T05:48:57.341Z,1008.86
2019-03-10T05:52:27.393Z,1009.75
2019-03-10T05:55:57.556Z,1010.33
2019-03-10T05:59:27.627Z,1011.02
2019-03-10T06:00:17.637Z,1010.97
2019-03-10T06:03:47.770Z,1011.58
2019-03-10T06:07:17.782Z,1012.02
2019-03-10T06:10:48.013Z,1012.8
2019-03-10T06:14:18.058Z,1013.7
2019-03-10T06:17:49.050Z,1013.98
2019-03-10T06:21:19.149Z,1014.76
2019-03-10T06:24:49.372Z,1015.04
2019-03-10T06:28:19.360Z,1013.55
2019-03-10T06:31:49.466Z,1014.38
2019-03-10T06:35:19.639Z,1015.19
2019-03-10T06:38:49.740Z,1015.72
2019-03-10T06:42:19.782Z,1016.52
2019-03-10T06:45:49.844Z,1016.77
2019-03-10T06:49:19.907Z,1017.62
2019-03-10T06:52:50.044Z,1018.5
2019-03-10T06:56:20.040Z,1019.39
2019-03-10T06:59:50.236Z,1018.72
2019-03-10T07:03:20.786Z,1017.21
2019-03-10T07:06:51.067Z,1016.26
2019-03-10T07:10:21.068Z,1016.55
2019-03-10T07:13:51.121Z,1017.16
2019-03-10T07:17:21.199Z,1017.11
2019-03-10T07:20:51.385Z,1017.08
2019-03-10T07:24:21.387Z,1017.88
2019-03-10T07:27:56.952Z,1017.79
2019-03-10T07:31:32.342Z,1017.9
2019-03-10T07:37:28.746Z,1018.02
2019-03-10T07:43:24.298Z,1017.77
2019-03-10T07:47:06.351Z,1017.2
2019-03-10T07:50:46.163Z,1017.64
2019-03-10T07:54:22.925Z,1018.41
2019-03-10T07:58:01.642Z,1019.79
2019-03-10T08:01:28.657Z,1020.63
2019-03-10T08:05:08.132Z,1022.13
2019-03-10T08:08:49.453Z,1023.2
2019-03-10T08:12:57.786Z,1024.7
2019-03-10T08:16:39.489Z,1026.9
2019-03-10T08:20:20.581Z,1028.8
2019-03-10T08:23:57.833Z,1029.97
2019-03-10T08:31:02.149Z,1033.22
2019-03-10T08:34:47.672Z,1035.41
2019-03-10T08:40:54.694Z,1036.56
2019-03-10T08:44:38.466Z,1036.62
2019-03-10T08:49:20.269Z,1036.06
2019-03-10T08:52:55.911Z,1035.86
2019-03-10T08:56:31.928Z,1036.44
2019-03-10T09:00:08.439Z,1036.29
2019-03-10T09:03:48.458Z,1036.03
2019-03-10T09:10:10.043Z,1035.31
2019-03-10T09:14:20.167Z,1035.85
2019-03-10T09:17:59.518Z,1035.18
2019-03-10T09:21:45.510Z,1035.64
2019-03-10T09:25:25.038Z,1035.41
2019-03-10T09:29:03.531Z,1036.12
2019-03-10T09:32:43.970Z,1035.67
2019-03-10T09:38:39.094Z,1034.6
2019-03-10T09:42:19.343Z,1034.02
2019-03-10T09:46:27.656Z,1033.83
2019-03-10T09:50:09.758Z,1033.18
2019-03-10T09:53:58.300Z,1033.6
2019-03-10T09:58:42.884Z,1034.45
2019-03-10T10:00:27.145Z,1035.24
2019-03-10T10:04:05.653Z,1036.24
2019-03-10T10:07:48.900Z,1036.86
2019-03-10T10:11:23.871Z,1036.39
2019-03-10T10:15:08.737Z,1036.53
2019-03-10T10:18:46.027Z,1037.23
2019-03-10T10:25:48.751Z,1038.05
2019-03-10T10:30:33.474Z,1037.89
2019-03-10T10:39:57.855Z,1039.68
2019-03-10T10:45:13.273Z,1040.81
2019-03-10T10:48:51.855Z,1042.02
2019-03-10T10:52:31.505Z,1042.58
2019-03-10T10:56:10.673Z,1044.55
2019-03-10T11:00:04.776Z,1046.18
2019-03-10T11:03:45.906Z,1047.73
2019-03-10T11:09:41.650Z,1048.25
2019-03-10T11:16:17.645Z,1047.34
2019-03-10T11:22:49.288Z,1049.8
2019-03-10T11:26:25.511Z,1049.99
2019-03-10T11:30:07.685Z,1049.86
2019-03-10T11:34:49.847Z,1051.5
2019-03-10T11:39:33.400Z,1050.85
2019-03-10T11:44:17.293Z,1050.54
2019-03-10T11:47:54.566Z,1052.69
2019-03-10T11:51:32.138Z,1051.32
2019-03-10T11:56:15.337Z,1049.57
2019-03-10T11:59:53.824Z,1049.31
2019-03-10T12:01:31.315Z,1049.12
2019-03-10T12:05:12.917Z,1049.57
2019-03-10T12:08:52.760Z,1050.78
2019-03-10T12:12:22.903Z,1049.55
2019-03-10T12:15:53.095Z,1049.85
2019-03-10T12:19:23.187Z,1049.55
2019-03-10T12:22:53.350Z,1050.13
2019-03-10T12:26:23.472Z,1050.91
2019-03-10T12:29:54.505Z,1051.73
2019-03-10T12:33:24.507Z,1052.71
2019-03-10T12:36:54.563Z,1050.87
2019-03-10T12:40:24.667Z,1050.9
2019-03-10T12:43:54.724Z,1052.12
2019-03-10T12:47:24.825Z,1051.44
2019-03-10T12:50:54.887Z,1051.95
2019-03-10T12:54:24.969Z,1051.21
2019-03-10T12:57:55.081Z,1050.97
2019-03-10T13:01:25.187Z,1051.87
2019-03-10T13:04:55.296Z,1051.4
2019-03-10T13:08:25.465Z,1049.78
2019-03-10T13:11:55.581Z,1050.73
2019-03-10T13:15:25.673Z,1050.82
2019-03-10T13:18:55.815Z,1051.31
2019-03-10T13:22:25.858Z,1052.14
2019-03-10T13:25:56.080Z,1050.59
2019-03-10T13:29:26.253Z,1050.7
2019-03-10T13:32:58.115Z,1050.38
2019-03-10T13:36:28.147Z,1050.48
2019-03-10T13:39:58.310Z,1051.7
2019-03-10T13:43:28.386Z,1052.41
2019-03-10T13:46:58.575Z,1052.83
2019-03-10T13:50:28.638Z,1051.74
2019-03-10T13:53:58.779Z,1051.67
2019-03-10T13:57:28.802Z,1052.13
2019-03-10T14:00:17.783Z,1051.98
2019-03-10T14:03:47.926Z,1052.32
2019-03-10T14:07:17.969Z,1053.89
2019-03-10T14:10:48.030Z,1054.85
2019-03-10T14:14:18.080Z,1055.11
2019-03-10T14:17:48.145Z,1055.19
2019-03-10T14:21:18.259Z,1053.71
2019-03-10T14:24:48.290Z,1054.36
2019-03-10T14:28:18.562Z,1054.91
2019-03-10T14:31:48.685Z,1055.23
2019-03-10T14:35:19.758Z,1054.26
2019-03-10T14:38:49.821Z,1053.72
2019-03-10T14:42:19.915Z,1052.29
2019-03-10T14:45:50.038Z,1052.25
2019-03-10T14:49:23.463Z,1051.98
2019-03-10T14:52:53.740Z,1053.1
2019-03-10T14:56:23.852Z,1050.33
2019-03-10T14:59:53.825Z,1049.6
2019-03-10T15:03:23.924Z,1049.42
2019-03-10T15:06:54.050Z,1047.71
2019-03-10T15:10:24.225Z,1045.74
2019-03-10T15:13:54.316Z,1045.02
2019-03-10T15:17:24.427Z,1043.9
2019-03-10T15:20:54.502Z,1043.82
2019-03-10T15:24:24.572Z,1043.46
2019-03-10T15:27:54.644Z,1043.26
2019-03-10T15:31:24.757Z,1041.96
2019-03-10T15:34:54.799Z,1040.49
2019-03-10T15:38:25.881Z,1039.07
2019-03-10T15:41:55.883Z,1039.26
2019-03-10T15:45:27.808Z,1038.91
2019-03-10T15:48:58.178Z,1036.86
2019-03-10T15:52:28.251Z,1034.05
2019-03-10T15:55:58.314Z,1032.48
2019-03-10T15:59:28.445Z,1030.73
2019-03-10T16:00:17.304Z,1030.59
2019-03-10T16:03:47.463Z,1029.37
2019-03-10T16:07:17.531Z,1028.74
2019-03-10T16:10:47.635Z,1027.6
2019-03-10T16:14:17.715Z,1026.44
2019-03-10T16:17:47.883Z,1025.25
2019-03-10T16:21:18.046Z,1024.23
2019-03-10T16:24:48.034Z,1023.55
2019-03-10T16:28:18.143Z,1022.93
2019-03-10T16:31:48.296Z,1022.55
2019-03-10T16:35:18.338Z,1022.1
2019-03-10T16:38:50.038Z,1021.84
2019-03-10T16:42:20.252Z,1021.73
2019-03-10T16:45:50.244Z,1021.37
2019-03-10T16:49:20.307Z,1021.14
2019-03-10T16:52:50.349Z,1021.15
2019-03-10T16:56:31.161Z,1020.89
2019-03-10T17:00:01.236Z,1020.94
2019-03-10T17:03:31.375Z,1021.32
2019-03-10T17:07:01.378Z,1021.47
2019-03-10T17:10:31.429Z,1021.17
2019-03-10T17:14:02.962Z,1020.62
2019-03-10T17:17:33.206Z,1020.59
2019-03-10T17:21:03.320Z,1020.43
2019-03-10T17:24:33.368Z,1020.27
2019-03-10T17:28:03.552Z,1020.18
2019-03-10T17:31:33.762Z,1020.11
2019-03-10T17:35:04.114Z,1019.96
2019-03-10T17:38:34.266Z,1019.85
2019-03-10T17:42:04.512Z,1018.9
2019-03-10T17:45:34.581Z,1018.18
2019-03-10T17:49:04.713Z,1017.91
2019-03-10T17:52:34.855Z,1017.49
2019-03-10T17:56:05.026Z,1017.23
2019-03-10T17:59:35.089Z,1016.63
2019-03-10T18:00:18.860Z,1016.58
2019-03-10T18:03:48.871Z,1016.6
2019-03-10T18:07:19.014Z,1016.24
2019-03-10T18:10:49.106Z,1016.07
2019-03-10T18:14:19.208Z,1015.77
2019-03-10T18:17:49.249Z,1015.4
2019-03-10T18:21:19.332Z,1015.3
2019-03-10T18:24:49.324Z,1015.04
2019-03-10T18:28:19.496Z,1014.56
2019-03-10T18:31:49.582Z,1014.31
2019-03-10T18:35:19.720Z,1014.15
2019-03-10T18:38:49.827Z,1014.1
2019-03-10T18:42:20.864Z,1014.13
2019-03-10T18:45:50.944Z,1014.18
2019-03-10T18:49:21.052Z,1014.25
2019-03-10T18:52:51.128Z,1014.48
2019-03-10T18:56:21.213Z,1014.28
2019-03-10T18:59:51.261Z,1014
2019-03-10T19:03:21.496Z,1013.48
2019-03-10T19:06:51.443Z,1013.35
2019-03-10T19:10:21.501Z,1013.33
2019-03-10T19:13:51.643Z,1012.96
2019-03-10T19:17:21.765Z,1012.86
2019-03-10T19:20:51.943Z,1012.84
2019-03-10T19:24:22.141Z,1013.08
2019-03-10T19:27:52.175Z,1012.59
2019-03-10T19:31:22.394Z,1012.29
2019-03-10T19:34:52.457Z,1012.28
2019-03-10T19:38:22.508Z,1012.11
2019-03-10T19:41:52.519Z,1012.42
2019-03-10T19:45:22.731Z,1012.23
2019-03-10T19:48:52.883Z,1012.51
2019-03-10T19:52:22.945Z,1012.52
2019-03-10T19:55:52.957Z,1012.93
2019-03-10T19:59:23.089Z,1012.99
2019-03-10T20:00:17.310Z,1013.22
2019-03-10T20:03:47.232Z,1013.35
2019-03-10T20:07:17.323Z,1013.62
2019-03-10T20:10:47.409Z,1013.42
2019-03-10T20:14:17.468Z,1013.18
2019-03-10T20:17:47.592Z,1013.22
2019-03-10T20:21:17.665Z,1012.9
2019-03-10T20:24:47.764Z,1013
2019-03-10T20:28:17.832Z,1012.98
2019-03-10T20:31:47.908Z,1012.94
2019-03-10T20:35:18.020Z,1012.96
2019-03-10T20:38:48.142Z,1012.7
2019-03-10T20:42:18.244Z,1012.71
2019-03-10T20:45:49.249Z,1012.48
2019-03-10T20:49:19.378Z,1012.44
2019-03-10T20:52:49.460Z,1012.2
2019-03-10T20:56:19.674Z,1012.67
2019-03-10T21:00:00.003Z,1012.64
2019-03-10T21:03:30.776Z,1012.9
2019-03-10T21:07:00.797Z,1013.04
2019-03-10T21:10:30.800Z,1013.57
2019-03-10T21:14:00.912Z,1013.64
2019-03-10T21:17:31.014Z,1014.02
2019-03-10T21:21:01.137Z,1013.73
2019-03-10T21:24:31.501Z,1014.14
2019-03-10T21:28:01.488Z,1014.06
2019-03-10T21:31:31.608Z,1013.64
2019-03-10T21:35:01.709Z,1013.68
2019-03-10T21:38:31.776Z,1013.53
2019-03-10T21:42:01.823Z,1013.43
2019-03-10T21:45:32.250Z,1013.2
2019-03-10T21:49:03.432Z,1013.07
2019-03-10T21:52:33.474Z,1013.33
2019-03-10T21:56:03.436Z,1013.02
2019-03-10T21:59:33.470Z,1012.78
2019-03-10T22:00:16.931Z,1012.54
2019-03-10T22:03:47.097Z,1012.42
2019-03-10T22:07:17.163Z,1012.33
2019-03-10T22:10:47.275Z,1012.06
2019-03-10T22:14:17.377Z,1011.94
2019-03-10T22:17:47.559Z,1011.5
2019-03-10T22:21:17.675Z,1011.32
2019-03-10T22:24:47.794Z,1011.43
2019-03-10T22:28:17.886Z,1011.62
2019-03-10T22:31:47.898Z,1011.59
2019-03-10T22:35:18.054Z,1011.65
2019-03-10T22:38:48.042Z,1012.53
2019-03-10T22:42:18.074Z,1012.32
2019-03-10T22:45:48.137Z,1012.64
2019-03-10T22:49:18.370Z,1012.5
2019-03-10T22:52:48.419Z,1012.6
2019-03-10T22:56:18.461Z,1012.61
2019-03-10T22:59:48.623Z,1012.67
2019-03-10T23:03:18.747Z,1012.45
2019-03-10T23:06:48.938Z,1011.89
2019-03-10T23:10:19.139Z,1011.77
2019-03-10T23:13:49.161Z,1011.46
2019-03-10T23:17:19.633Z,1011.13
2019-03-10T23:20:49.655Z,1011.43
2019-03-10T23:24:19.728Z,1011.56
2019-03-10T23:27:49.909Z,1011.43
2019-03-10T23:31:20.082Z,1011.71
2019-03-10T23:34:50.083Z,1011.9
2019-03-10T23:38:20.145Z,1012.09
2019-03-10T23:41:50.230Z,1012.14
2019-03-10T23:45:20.299Z,1012.01
2019-03-10T23:48:50.322Z,1012.17
2019-03-10T23:52:21.314Z,1012.13
2019-03-10T23:55:51.338Z,1012.02
2019-03-10T23:59:21.468Z,1012.14
